• Join FlightAware (Why Join?)
  • Login
  • US Flag 
01:50PM EST


 

Airport Tracker/Info


-or-


 

Live Flight TrackerFlight Track Log ✈ AWE1965 ✈ 28-Apr-2012 ✈ KCLT - MDPC / PUJ

Flight Track Log - Related Links

Times and Time Zones

All times are in EDT time to prevent confusion due to time zone crossing. See the AWE1965 flight status page for this flight to view local times or setup timezone preferences in your user account.

Time Position Orientation Groundspeed Altitude Reporting Facility
EDT Latitude Longitude Course Direction KTS MPH feet Rate Location/Type
10:39AM 35.1879 -80.9293 350° North  Level FlightAware Approximate
10:40AM 35.2347 -80.9392 40° Northeast 165 190 1,800  Level Atlanta Center
10:41AM 35.3019 -80.8706 96° East 248 285 4,300 1,500 Climbing Atlanta Center
10:42AM 35.2956 -80.7944 136° Southeast 281 323 5,800 2,100 Climbing Atlanta Center
10:43AM 35.2439 -80.7328 179° South 288 331 8,300 2,220 Climbing Atlanta Center
10:44AM 35.1647 -80.7308 198° South 279 321 10,300 1,680 Climbing Atlanta Center
10:45AM 35.0778 -80.7647 196° South 292 336 11,700 1,740 Climbing Atlanta Center
10:47AM 34.8586 -80.8408 196° South 382 440 15,800 1,800 Climbing Jacksonville Center
10:48AM 34.7653 -80.8733 191° South 382 440 17,300 1,500 Climbing Jacksonville Center
10:49AM 34.6553 -80.8986 176° South 394 453 18,900 1,680 Climbing Jacksonville Center
10:50AM 34.5361 -80.8889 173° South 414 476 20,700 1,800 Climbing Jacksonville Center
10:51AM 34.4189 -80.8714 189° South 427 491 22,500 1,500 Climbing Jacksonville Center
10:52AM 34.3006 -80.8942 193° South 431 496 23,700 1,140 Climbing Jacksonville Center
10:53AM 34.1903 -80.9244 177° South 426 490 24,800 1,140 Climbing Jacksonville Center
10:54AM 34.0714 -80.9169 132° Southeast 431 496 26,000 1,080 Climbing Jacksonville Center
10:55AM 33.9839 -80.7989 124° Southeast 409 471 27,000 1,020 Climbing Jacksonville Center
10:56AM 33.9086 -80.6656 125° Southeast 424 488 28,100 900 Climbing Jacksonville Center
10:57AM 33.8311 -80.5300 123° Southeast 462 532 28,800 780 Climbing Jacksonville Center
10:58AM 33.7575 -80.3944 125° Southeast 479 551 29,700 900 Climbing Jacksonville Center
10:59AM 33.6775 -80.2594 124° Southeast 492 566 30,600 1,020 Climbing Jacksonville Center
11:00AM 33.5994 -80.1222 124° Southeast 498 573 31,800 1,140 Climbing Jacksonville Center
11:01AM 33.5233 -79.9875 124° Southeast 498 573 32,900 900 Climbing Jacksonville Center
11:02AM 33.4472 -79.8531 125° Southeast 498 573 33,700 900 Climbing Jacksonville Center
11:03AM 33.3708 -79.7214 125° Southeast 498 573 34,800 600 Climbing Jacksonville Center
11:04AM 33.2944 -79.5900 125° Southeast 487 560 35,000 60 Climbing Jacksonville Center
11:05AM 33.2136 -79.4517 125° Southeast 482 555 35,000  Level Jacksonville Center
11:06AM 33.1392 -79.3253 125° Southeast 482 555 35,000 -60 Level Jacksonville Center
11:07AM 33.0644 -79.1994 125° Southeast 477 549 34,900  Descending Jacksonville Center
11:08AM 32.9897 -79.0714 124° Southeast 472 543 35,000  Climbing Jacksonville Center
11:09AM 32.9169 -78.9433 125° Southeast 472 543 35,000  Level Jacksonville Center
11:10AM 32.8419 -78.8181 124° Southeast 467 537 35,000 -60 Level Jacksonville Center
11:11AM 32.7711 -78.6928 127° Southeast 462 532 34,900  Descending Jacksonville Center
11:12AM 32.6917 -78.5658 128° Southeast 462 532 35,000  Climbing Jacksonville Center
11:13AM 32.6100 -78.4414 124° Southeast 467 537 35,000  Level Jacksonville Center
11:14AM 32.5367 -78.3144 126° Southeast 472 543 35,000  Level Jacksonville Center
11:15AM 32.4592 -78.1903 125° Southeast 472 543 35,000  Level Jacksonville Center
11:16AM 32.3856 -78.0639 125° Southeast 466 536 35,000  Level Jacksonville Center
11:17AM 32.3072 -77.9328 132° Southeast 471 542 35,000  Level Jacksonville Center
11:18AM 32.2217 -77.8219 140° Southeast 466 536 35,000  Level Jacksonville Center
11:19AM 32.1214 -77.7222 143° Southeast 466 536 35,000  Level Jacksonville Center
11:20AM 32.0219 -77.6347 139° Southeast 458 527 35,000  Level Jacksonville Center
11:21AM 31.9217 -77.5328 143° Southeast 458 527 35,000  Level Jacksonville Center
11:22AM 31.8219 -77.4456 140° Southeast 464 534 35,000  Level Jacksonville Center
11:23AM 31.7239 -77.3489 141° Southeast 458 527 35,000  Level Jacksonville Center
11:24AM 31.6236 -77.2547 141° Southeast 463 533 35,000  Level Jacksonville Center
11:25AM 31.5256 -77.1608 143° Southeast 463 533 35,000  Level Jacksonville Center
11:26AM 31.4256 -77.0722 139° Southeast 463 533 35,000  Level Jacksonville Center
11:27AM 31.3269 -76.9736 316° Northwest 463 533 35,000  Level Jacksonville Center
11:29AM 31.3500 -77.0000 140° Southeast 462 532 35,000  Level New York Oceanic (ODAPS)
11:59AM 28.2500 -74.1167 149° Southeast 450 518 35,000  Level New York Oceanic (ODAPS)
12:21PM 25.6914 -72.4364 150° Southeast 451 519 35,000  Level Miami Center
12:22PM 25.5933 -72.3733 151° Southeast 457 526 35,000  Level Miami Center
12:23PM 25.4825 -72.3039 149° Southeast 467 537 35,000  Level Miami Center
12:24PM 25.3739 -72.2319 151° Southeast 459 528 35,000  Level Miami Center
12:25PM 25.2631 -72.1628 151° Southeast 459 528 35,000  Level Miami Center
12:26PM 25.1481 -72.0914 151° Southeast 464 534 35,000  Level Miami Center
12:27PM 25.0372 -72.0225 163° South 459 528 35,000  Level Miami Center
12:28PM 24.9167 -71.9814 164° South 464 534 35,000  Level Miami Center
12:29PM 24.7986 -71.9450 155° Southeast 447 514 35,000  Level Miami Center
12:30PM 24.6861 -71.8878 159° South 453 521 35,000  Level Miami Center
12:31PM 24.5694 -71.8375 156° South 453 521 35,000  Level Miami Center
12:32PM 24.4547 -71.7808 159° South 448 516 35,000  Level Miami Center
12:33PM 24.3361 -71.7308 157° South 453 521 35,000  Level Miami Center
12:34PM 24.2217 -71.6764 155° Southeast 453 521 35,000  Level Miami Center
12:35PM 24.1047 -71.6175 157° South 458 527 35,000  Level Miami Center
12:36PM 23.9900 -71.5633 155° Southeast 458 527 35,000  Level Miami Center
12:37PM 23.8731 -71.5047 156° South 458 527 35,000  Level Miami Center
12:38PM 23.7606 -71.4506 157° South 458 527 35,000  Level Miami Center
12:39PM 23.6417 -71.3967 155° Southeast 458 527 35,000  Level Miami Center
12:40PM 23.5289 -71.3381 158° South 453 521 35,000  Level Miami Center
12:41PM 23.4100 -71.2844 158° South 453 521 35,000  Level Miami Center
12:42PM 23.2933 -71.2331 156° South 453 521 35,000  Level Miami Center
12:43PM 23.1761 -71.1750 156° South 458 527 35,000  Level Miami Center
12:44PM 23.0636 -71.1214 157° South 458 527 35,000  Level Miami Center
12:45PM 22.9489 -71.0678 157° South 453 521 35,000  Level Miami Center
12:47PM 22.7172 -70.9589 156° South 453 521 35,000  Level Miami Center
12:48PM 22.5958 -70.9014 157° South 458 527 35,000  Level Miami Center
12:49PM 22.4792 -70.8486 156° South 463 533 35,000  Level Miami Center
12:50PM 22.3578 -70.7914 156° South 463 533 35,000  Level Miami Center
12:51PM 22.2367 -70.7342 157° South 463 533 35,000  Level Miami Center
12:52PM 22.1178 -70.6792 157° South 463 533 35,000  Level Miami Center
12:53PM 22.0008 -70.6244 157° South 463 533 35,000  Level Miami Center
12:54PM 21.8817 -70.5694 156° South 463 533 35,000  Level Miami Center
12:55PM 21.7539 -70.5086 157° South 463 533 35,000  Level Miami Center
12:56PM 21.6328 -70.4542 157° South 463 533 35,000  Level Miami Center
12:57PM 21.5139 -70.3997 157° South 463 533 35,000  Level Miami Center
12:58PM 21.3947 -70.3453 158° South 463 533 35,000  Level Miami Center
12:59PM 21.2758 -70.2933 155° Southeast 463 533 35,000  Level Miami Center
01:00PM 21.1567 -70.2347 157° South 463 533 35,000  Level Miami Center
01:01PM 21.0356 -70.1806 157° South 463 533 35,000  Level Miami Center
01:02PM 20.9142 -70.1244 157° South 468 539 35,000  Level Miami Center
01:03PM 20.7972 -70.0703 157° South 468 539 35,000  Level Miami Center
01:04PM 20.6761 -70.0144 157° South 463 533 35,000  Level Miami Center
01:05PM 20.5550 -69.9608 157° South 463 533 35,000 -300 Level Miami Center
01:06PM 20.4336 -69.9050 156° South 463 533 34,500 -780 Descending Miami Center
01:07PM 20.3189 -69.8511 142° Southeast 463 533 33,500 -1,020 Descending Miami Center
01:08PM 20.2128 -69.7617 140° Southeast 469 540 32,500 -1,500 Descending Miami Center
01:09PM 20.1106 -69.6719 142° Southeast 476 548 30,500 -2,100 Descending Miami Center
01:10PM 20.0022 -69.5806 140° Southeast 487 560 28,400 -2,100 Descending Miami Center
01:11PM 19.9025 -69.4914 141° Southeast 482 555 26,400 -1,980 Descending Miami Center
01:13PM 19.7072 -69.3258 140° Southeast 463 533 22,600 -1,920 Descending Miami Center
01:21PM 19.0017 -68.7067 143° Southeast  Level FlightAware Approximate
01:22PM 18.9052 -68.6303 323° Northwest  Level Estimated
01:23PM 19.0070 -68.7113 143° Southeast  Level FlightAware Approximate
01:24PM 18.9106 -68.6348 139° Southeast  Level Estimated
01:25PM 18.8164 -68.5474 145° Southeast  Level FlightAware Approximate
01:26PM 18.7176 -68.4743 137° Southeast  Level Estimated
01:27PM 18.6256 -68.3838 137° Southeast  Level FlightAware Approximate